createdAt,value
2022-10-23T00:00:20.677Z,68.55
2022-10-23T00:02:56.682Z,75.40
2022-10-23T00:05:23.790Z,63.35
2022-10-23T00:07:51.763Z,66.88
2022-10-23T00:10:18.481Z,59.95
2022-10-23T00:12:45.278Z,63.45
2022-10-23T00:15:12.067Z,58.42
2022-10-23T00:17:38.613Z,55.70
2022-10-23T00:20:06.749Z,53.33
2022-10-23T00:22:33.389Z,57.70
2022-10-23T00:24:59.957Z,55.72
2022-10-23T00:27:26.569Z,65.07
2022-10-23T00:29:53.142Z,71.07
2022-10-23T00:32:19.960Z,66.95
2022-10-23T00:34:46.533Z,70.13
2022-10-23T00:37:13.047Z,65.00
2022-10-23T00:39:39.590Z,64.28
2022-10-23T00:42:06.153Z,60.80
2022-10-23T00:44:32.650Z,60.63
2022-10-23T00:46:59.396Z,73.85
2022-10-23T00:49:26.191Z,61.60
2022-10-23T00:51:57.157Z,58.75
2022-10-23T00:54:25.817Z,59.88
2022-10-23T00:56:57.012Z,63.70
2022-10-23T00:59:23.859Z,70.88
2022-10-23T01:01:50.550Z,65.00
2022-10-23T01:04:17.620Z,71.05
2022-10-23T01:06:59.472Z,60.60
2022-10-23T01:09:34.939Z,61.78
2022-10-23T01:12:04.942Z,68.32
2022-10-23T01:14:31.440Z,72.57
2022-10-23T01:17:30.484Z,72.65
2022-10-23T01:20:14.198Z,66.20
2022-10-23T01:22:59.212Z,64.93
2022-10-23T01:25:52.423Z,68.00
2022-10-23T01:28:26.497Z,73.05
2022-10-23T01:30:54.084Z,65.50
2022-10-23T01:33:29.340Z,71.38
2022-10-23T01:36:04.536Z,71.40
2022-10-23T01:38:40.486Z,70.65
2022-10-23T01:41:16.303Z,69.75
2022-10-23T01:44:06.342Z,72.07
2022-10-23T01:46:35.506Z,84.53
2022-10-23T01:49:02.593Z,87.05
2022-10-23T01:51:31.277Z,76.00
2022-10-23T01:53:58.933Z,76.18
2022-10-23T01:56:27.935Z,75.38
2022-10-23T01:58:55.692Z,80.45
2022-10-23T02:01:23.901Z,77.68
2022-10-23T02:03:51.121Z,87.50
2022-10-23T02:06:17.741Z,82.25
2022-10-23T02:08:44.434Z,76.03
2022-10-23T02:11:13.036Z,71.18
2022-10-23T02:13:42.664Z,79.78
2022-10-23T02:16:15.051Z,70.30
2022-10-23T02:19:01.895Z,65.50
2022-10-23T02:21:28.457Z,71.20
2022-10-23T02:23:57.999Z,58.08
2022-10-23T02:26:27.749Z,48.55
2022-10-23T02:28:58.300Z,54.47
2022-10-23T02:31:24.908Z,68.07
2022-10-23T02:33:51.779Z,52.97
2022-10-23T02:36:19.062Z,46.65
2022-10-23T02:38:45.678Z,51.83
2022-10-23T02:41:18.430Z,64.47
2022-10-23T02:43:57.613Z,71.70
2022-10-23T02:46:29.058Z,64.68
2022-10-23T02:49:00.377Z,67.65
2022-10-23T02:51:43.043Z,64.78
2022-10-23T02:54:15.760Z,72.07
2022-10-23T02:56:42.380Z,62.13
2022-10-23T02:59:08.874Z,68.55
2022-10-23T03:01:39.082Z,63.47
2022-10-23T03:04:06.691Z,62.72
2022-10-23T03:06:33.332Z,71.35
2022-10-23T03:09:02.399Z,69.35
2022-10-23T03:11:28.922Z,70.85
2022-10-23T03:13:55.504Z,68.65
2022-10-23T03:16:22.026Z,59.58
2022-10-23T03:18:48.542Z,56.85
2022-10-23T03:21:15.124Z,70.15
2022-10-23T03:23:41.580Z,78.65
2022-10-23T03:26:08.148Z,67.55
2022-10-23T03:28:35.642Z,71.53
2022-10-23T03:31:02.407Z,69.35
2022-10-23T03:33:29.852Z,67.10
2022-10-23T03:35:56.532Z,79.65
2022-10-23T03:38:23.173Z,72.72
2022-10-23T03:40:49.716Z,81.38
2022-10-23T03:43:16.284Z,71.15
2022-10-23T03:45:42.847Z,69.18
2022-10-23T03:48:09.366Z,68.53
2022-10-23T03:50:36.044Z,71.65
2022-10-23T03:53:02.796Z,69.82
2022-10-23T03:55:29.361Z,68.53
2022-10-23T03:57:55.892Z,82.47
2022-10-23T04:00:22.648Z,68.90
2022-10-23T04:02:49.448Z,71.95
2022-10-23T04:05:16.100Z,90.97
2022-10-23T04:07:42.604Z,73.32
2022-10-23T04:10:09.355Z,114.88
2022-10-23T04:12:36.027Z,84.20
2022-10-23T04:15:02.614Z,81.85
2022-10-23T04:17:29.188Z,107.05
2022-10-23T04:19:55.913Z,82.30
2022-10-23T04:22:24.779Z,80.28
2022-10-23T04:24:54.038Z,85.97
2022-10-23T04:27:20.533Z,75.43
2022-10-23T04:29:47.096Z,72.65
2022-10-23T04:32:13.578Z,67.22
2022-10-23T04:34:40.088Z,72.25
2022-10-23T04:37:06.600Z,70.15
2022-10-23T04:39:33.062Z,63.95
2022-10-23T04:41:59.552Z,71.35
2022-10-23T04:44:26.023Z,72.95
2022-10-23T04:46:52.562Z,70.05
2022-10-23T04:49:19.059Z,69.20
2022-10-23T04:51:45.558Z,82.72
2022-10-23T04:54:12.096Z,96.03
2022-10-23T04:56:38.658Z,74.72
2022-10-23T05:01:32.070Z,70.18
2022-10-23T05:03:58.763Z,69.00
2022-10-23T05:06:25.319Z,62.22
2022-10-23T05:08:51.907Z,67.97
2022-10-23T05:11:18.422Z,67.15
2022-10-23T05:13:44.937Z,65.05
2022-10-23T05:16:13.191Z,76.70
2022-10-23T05:21:06.137Z,76.43
2022-10-23T05:23:33.507Z,81.68
2022-10-23T05:26:00.364Z,71.20
2022-10-23T05:28:26.857Z,82.50
2022-10-23T05:30:53.364Z,77.18
2022-10-23T05:33:19.977Z,73.35
2022-10-23T05:35:46.851Z,64.47
2022-10-23T05:38:14.025Z,69.55
2022-10-23T05:40:40.605Z,65.15
2022-10-23T05:43:07.158Z,70.68
2022-10-23T05:45:33.634Z,74.28
2022-10-23T05:48:10.833Z,75.55
2022-10-23T05:50:43.611Z,76.75
2022-10-23T05:53:10.778Z,70.90
2022-10-23T05:55:38.167Z,68.97
2022-10-23T05:58:04.882Z,68.07
2022-10-23T06:00:31.629Z,82.45
2022-10-23T06:03:01.409Z,81.50
2022-10-23T06:05:28.304Z,75.53
2022-10-23T06:08:01.112Z,78.05
2022-10-23T06:10:27.803Z,74.32
2022-10-23T06:12:54.350Z,71.53
2022-10-23T06:15:21.068Z,85.22
2022-10-23T06:17:47.638Z,70.00
2022-10-23T06:20:14.198Z,72.45
2022-10-23T06:22:40.885Z,63.53
2022-10-23T06:25:07.975Z,73.57
2022-10-23T06:27:34.496Z,68.00
2022-10-23T06:30:01.081Z,66.25
2022-10-23T06:32:31.364Z,73.28
2022-10-23T06:34:57.832Z,86.38
2022-10-23T06:37:24.416Z,69.00
2022-10-23T06:39:50.917Z,66.78
2022-10-23T06:42:17.436Z,59.03
2022-10-23T06:44:44.319Z,61.63
2022-10-23T06:47:13.010Z,60.05
2022-10-23T06:49:39.677Z,75.07
2022-10-23T06:52:11.086Z,60.92
2022-10-23T06:54:52.906Z,64.18
2022-10-23T06:57:19.372Z,60.58
2022-10-23T06:59:45.870Z,70.32
2022-10-23T07:02:12.808Z,54.13
2022-10-23T07:04:40.460Z,57.13
2022-10-23T07:07:07.250Z,68.93
2022-10-23T07:09:35.502Z,61.75
2022-10-23T07:14:32.096Z,56.80
2022-10-23T07:16:59.195Z,58.22
2022-10-23T07:19:27.400Z,54.42
2022-10-23T07:21:54.375Z,51.85
2022-10-23T07:24:20.890Z,49.50
2022-10-23T07:26:47.534Z,52.72
2022-10-23T07:29:14.141Z,43.92
2022-10-23T07:31:40.658Z,45.70
2022-10-23T07:34:07.227Z,58.53
2022-10-23T07:36:33.908Z,55.20
2022-10-23T07:39:00.511Z,68.18
2022-10-23T07:41:27.137Z,64.00
2022-10-23T07:43:53.788Z,65.47
2022-10-23T07:46:21.340Z,84.63
2022-10-23T07:51:15.891Z,92.50
2022-10-23T07:53:42.940Z,83.18
2022-10-23T07:56:14.303Z,67.43
2022-10-23T07:58:40.992Z,72.75
2022-10-23T08:01:15.411Z,74.65
2022-10-23T08:03:41.995Z,75.68
2022-10-23T08:06:08.544Z,62.88
2022-10-23T08:08:35.140Z,75.18
2022-10-23T08:11:01.748Z,68.20
2022-10-23T08:13:28.376Z,62.65
2022-10-23T08:15:55.999Z,67.95
2022-10-23T08:18:22.540Z,57.80
2022-10-23T08:20:50.747Z,56.00
2022-10-23T08:25:45.740Z,51.40
2022-10-23T08:28:12.386Z,40.80
2022-10-23T08:30:39.122Z,36.85
2022-10-23T08:33:06.186Z,34.95
2022-10-23T08:35:37.961Z,32.40
2022-10-23T08:38:05.084Z,35.22
2022-10-23T08:40:31.745Z,26.80
2022-10-23T08:43:10.511Z,39.10
2022-10-23T08:45:51.066Z,32.30
2022-10-23T08:48:20.634Z,33.28
2022-10-23T08:50:53.102Z,39.45
2022-10-23T08:53:27.077Z,30.67
2022-10-23T08:56:03.186Z,40.30
2022-10-23T08:58:36.090Z,29.85
2022-10-23T09:01:12.039Z,36.13
2022-10-23T09:03:38.669Z,72.07
2022-10-23T09:06:07.631Z,72.53
2022-10-23T09:08:37.640Z,58.15
2022-10-23T09:11:24.480Z,52.60
2022-10-23T09:13:59.709Z,45.08
2022-10-23T09:16:45.217Z,36.75
2022-10-23T09:19:14.705Z,46.20
2022-10-23T09:21:41.440Z,36.33
2022-10-23T09:24:14.490Z,58.20
2022-10-23T09:26:42.761Z,70.25
2022-10-23T09:29:20.534Z,158.13
2022-10-23T09:31:57.573Z,43.17
2022-10-23T09:52:08.352Z,33.63
2022-10-23T10:10:26.935Z,16.58
2022-10-23T10:12:58.386Z,20.30
2022-10-23T10:15:25.857Z,16.60
2022-10-23T10:31:27.120Z,12.73
2022-10-23T10:33:53.701Z,12.82
2022-10-23T10:36:34.429Z,11.13
2022-10-23T10:39:03.349Z,17.15
2022-10-23T10:41:29.852Z,14.95
2022-10-23T10:43:59.628Z,12.02
2022-10-23T10:49:18.769Z,11.80
2022-10-23T10:51:45.422Z,15.55
2022-10-23T10:54:19.176Z,16.98
2022-10-23T10:56:47.384Z,22.23
2022-10-23T10:59:21.868Z,15.27
2022-10-23T11:02:07.447Z,12.45
2022-10-23T11:04:55.930Z,17.63
2022-10-23T11:07:24.129Z,13.05
2022-10-23T11:09:50.725Z,17.88
2022-10-23T11:12:24.748Z,10.07
2022-10-23T11:14:51.705Z,17.15
2022-10-23T11:17:24.519Z,10.70
2022-10-23T11:19:54.024Z,15.00
2022-10-23T11:22:39.577Z,14.55
2022-10-23T11:28:15.431Z,15.70
2022-10-23T11:30:41.926Z,9.00
2022-10-23T11:33:34.962Z,18.38
2022-10-23T11:36:01.491Z,13.10
2022-10-23T11:38:28.189Z,21.00
2022-10-23T11:40:59.876Z,11.40
2022-10-23T11:43:27.588Z,19.02
2022-10-23T11:45:54.446Z,9.52
2022-10-23T11:48:23.874Z,8.07
2022-10-23T11:50:53.656Z,12.88
2022-10-23T11:53:32.201Z,12.27
2022-10-23T11:56:00.595Z,13.88
2022-10-23T11:58:34.290Z,15.63
2022-10-23T12:01:05.848Z,13.02
2022-10-23T12:03:38.230Z,16.27
